Mershon, Georgia
Current Conditions -  °F | °C
As of 2:53 PM on Sunday 23 Nov 2014 (Local Time) from KAMG Reporting Station
Light Rain Light Rain  
Wind Chill: 72°   Ceiling: 1800
Heat Index: 72°   Visibility: 7mi
Dew Point: 69°   Wind: 8mph
Humidity: 91%   Direction: 140°SE
Pressure: 29.8"   Gusts: NA
Location:  31.46°N, 82.26°W
Report Text: KAMG 231953Z AUTO 14007KT 7SM -RA OVC018 22/21 A2980 RMK AO2 RAB42 SLP089 P0000 T02220206
Loading
Personal Weather Stations






























Interactive Weather Map New forecast layout! Learn more

10-Day Weather Forecast

Advertisements
Track Severe Weather on mobile